Scout — WDI8661 — position and weather

sailwx.info

Track history (hours):
 
Tides and Currents Weather Stations Pressure Air Temp Water Temp Dewpoint Dewpoint Depression Visibility Wind Speed Wind Dir Waves Ship Positions

Scout

Owner: Harley Marine Services, Inc, Seattle, WA. More information available from US FCC via Universal Licensing System and Coast Guard Vessel Documentation Center.

Last reported at 2018-Jun-21 14:00 UTC. Time now 2018-Jun-21 14:31 UTC.
Position N 30°05' W 094°05'.

Length 23 m; draft 3.3 m.

Type: Towing. MMSI: 367740860.

Date/timePositionNaut miles runAvg speedWind from/ knotsBaromVisibWave heightAir tempDewpointWater temp
2018-Jun-21 14:00N 30°05' W 094°05'0 0.0
2018-Jun-21 13:30N 30°05' W 094°05'0 0.0
2018-Jun-21 13:00N 30°05' W 094°05'0 0.0
2018-Jun-21 12:30N 30°05' W 094°05'0 0.0
2018-Jun-21 12:00N 30°05' W 094°05'0 0.0
2018-Jun-21 11:30N 30°05' W 094°05'0 0.0
2018-Jun-21 11:00N 30°05' W 094°05'0 0.0
2018-Jun-21 10:30N 30°05' W 094°05'1 1.3
2018-Jun-21 10:00N 30°05' W 094°04'3 6.2
2018-Jun-21 09:30N 30°03' W 094°02'3 6.6
2018-Jun-21 09:01N 30°01' W 093°59'3 6.9
2018-Jun-21 08:30N 29°59' W 093°55'4 7.0
2018-Jun-21 08:00N 29°58' W 093°51'4 7.8
2018-Jun-21 07:30N 29°54' W 093°54'4 7.7
2018-Jun-21 07:00N 29°51' W 093°56'4 7.6
2018-Jun-21 06:30N 29°49' W 093°60'4 7.3
2018-Jun-21 06:00N 29°46' W 094°03'4 7.5
2018-Jun-21 05:30N 29°44' W 094°06'4 7.3
2018-Jun-21 05:00N 29°42' W 094°09'4 7.3
2018-Jun-21 04:30N 29°40' W 094°13'4 7.1
2018-Jun-21 04:00N 29°39' W 094°17'4 7.1
2018-Jun-21 03:29N 29°37' W 094°21'4 6.9
2018-Jun-21 02:58N 29°36' W 094°24'1 2.4
2018-Jun-21 02:27N 29°35' W 094°25'3 4.5
2018-Jun-21 01:50N 29°33' W 094°28'10 7.0
2018-Jun-21 00:22N 29°28' W 094°38'10 6.9
2018-Jun-20 22:51N 29°22' W 094°48'3 8.4
2018-Jun-20 22:30N 29°24' W 094°49'4 8.9
2018-Jun-20 22:00N 29°29' W 094°51'5 8.6
2018-Jun-20 21:29N 29°32' W 094°54'5 8.7
2018-Jun-20 20:56N 29°36' W 094°57'4 8.3
2018-Jun-20 20:26N 29°40' W 094°59'9 0.8
2018-Jun-20 09:33N 29°47' W 095°06'0 0.0
2018-Jun-20 09:21N 29°47' W 095°06'0 0.0
2018-Jun-20 08:58N 29°47' W 095°06'0 0.0
2018-Jun-20 01:50N 29°47' W 095°06'0 0.0
2018-Jun-20 01:29N 29°47' W 095°06'  
2018-Jun-15 05:15N 29°47' W 095°06'0 0.0
2018-Jun-15 03:07N 29°47' W 095°06'0 0.0
2018-Jun-15 02:50N 29°47' W 095°06'0 0.0
2018-Jun-14 09:25N 29°47' W 095°06'0 0.0
2018-Jun-14 08:55N 29°47' W 095°06'0 0.0
2018-Jun-14 08:17N 29°47' W 095°06'0 0.0
2018-Jun-14 08:00N 29°47' W 095°06'0 0.0
2018-Jun-14 07:27N 29°47' W 095°06'0 0.0
2018-Jun-14 06:58N 29°47' W 095°06'0 0.0
2018-Jun-14 06:30N 29°47' W 095°06'0 0.0
2018-Jun-14 05:46N 29°47' W 095°06'0 0.0
2018-Jun-14 04:23N 29°47' W 095°06'0 0.0
2018-Jun-14 03:58N 29°47' W 095°06'0 0.0
2018-Jun-14 03:28N 29°47' W 095°06'0 0.0
2018-Jun-14 02:53N 29°47' W 095°06'0 0.0
2018-Jun-14 02:27N 29°47' W 095°06'0 0.0
2018-Jun-14 01:49N 29°47' W 095°06'0 0.0
2018-Jun-14 01:26N 29°47' W 095°06'0 0.0
2018-Jun-13 07:57N 29°47' W 095°06'0 0.0
2018-Jun-13 06:15N 29°47' W 095°06'0 0.0
2018-Jun-13 06:00N 29°47' W 095°06'0 0.0
2018-Jun-13 05:30N 29°47' W 095°06'0 0.0
2018-Jun-13 05:00N 29°47' W 095°06'0 0.0
2018-Jun-13 04:28N 29°47' W 095°06'0 0.0
2018-Jun-13 03:59N 29°47' W 095°06'0 0.0
2018-Jun-13 03:27N 29°47' W 095°06'0 0.0
2018-Jun-13 02:49N 29°47' W 095°06'0 0.0
2018-Jun-13 02:09N 29°47' W 095°06'0 0.0
2018-Jun-13 01:58N 29°47' W 095°06'0 0.0
2018-Jun-12 11:36N 29°47' W 095°06'0 0.0
2018-Jun-12 11:25N 29°47' W 095°06'0 0.0
2018-Jun-12 10:43N 29°47' W 095°06'0 0.0
2018-Jun-12 10:11N 29°47' W 095°06'  
Track history (hours):
 
Tides and Currents Weather Stations Pressure Air Temp Water Temp Dewpoint Dewpoint Depression Visibility Wind Speed Wind Dir Waves Ship Positions

Scout

Owner: Harley Marine Services, Inc, Seattle, WA. More information available from US FCC via Universal Licensing System and Coast Guard Vessel Documentation Center.

Last reported at 2018-Jun-21 14:00 UTC. Time now 2018-Jun-21 14:31 UTC.
Position N 30°05' W 094°05'.

Length 23 m; draft 3.3 m.

Type: Towing. MMSI: 367740860.

Date/timePositionNaut miles runAvg speedWind from/ knotsBaromVisibWave heightAir tempDewpointWater temp
2018-Jun-21 14:00N 30°05' W 094°05'0 0.0
2018-Jun-21 13:30N 30°05' W 094°05'0 0.0
2018-Jun-21 13:00N 30°05' W 094°05'0 0.0
2018-Jun-21 12:30N 30°05' W 094°05'0 0.0
2018-Jun-21 12:00N 30°05' W 094°05'0 0.0
2018-Jun-21 11:30N 30°05' W 094°05'0 0.0
2018-Jun-21 11:00N 30°05' W 094°05'0 0.0
2018-Jun-21 10:30N 30°05' W 094°05'1 1.3
2018-Jun-21 10:00N 30°05' W 094°04'3 6.2
2018-Jun-21 09:30N 30°03' W 094°02'3 6.6
2018-Jun-21 09:01N 30°01' W 093°59'3 6.9
2018-Jun-21 08:30N 29°59' W 093°55'4 7.0
2018-Jun-21 08:00N 29°58' W 093°51'4 7.8
2018-Jun-21 07:30N 29°54' W 093°54'4 7.7
2018-Jun-21 07:00N 29°51' W 093°56'4 7.6
2018-Jun-21 06:30N 29°49' W 093°60'4 7.3
2018-Jun-21 06:00N 29°46' W 094°03'4 7.5
2018-Jun-21 05:30N 29°44' W 094°06'4 7.3
2018-Jun-21 05:00N 29°42' W 094°09'4 7.3
2018-Jun-21 04:30N 29°40' W 094°13'4 7.1
2018-Jun-21 04:00N 29°39' W 094°17'4 7.1
2018-Jun-21 03:29N 29°37' W 094°21'4 6.9
2018-Jun-21 02:58N 29°36' W 094°24'1 2.4
2018-Jun-21 02:27N 29°35' W 094°25'3 4.5
2018-Jun-21 01:50N 29°33' W 094°28'10 7.0
2018-Jun-21 00:22N 29°28' W 094°38'10 6.9
2018-Jun-20 22:51N 29°22' W 094°48'3 8.4
2018-Jun-20 22:30N 29°24' W 094°49'4 8.9
2018-Jun-20 22:00N 29°29' W 094°51'5 8.6
2018-Jun-20 21:29N 29°32' W 094°54'5 8.7
2018-Jun-20 20:56N 29°36' W 094°57'4 8.3
2018-Jun-20 20:26N 29°40' W 094°59'9 0.8
2018-Jun-20 09:33N 29°47' W 095°06'0 0.0
2018-Jun-20 09:21N 29°47' W 095°06'0 0.0
2018-Jun-20 08:58N 29°47' W 095°06'0 0.0
2018-Jun-20 01:50N 29°47' W 095°06'0 0.0
2018-Jun-20 01:29N 29°47' W 095°06'  
2018-Jun-15 05:15N 29°47' W 095°06'0 0.0
2018-Jun-15 03:07N 29°47' W 095°06'0 0.0
2018-Jun-15 02:50N 29°47' W 095°06'0 0.0
2018-Jun-14 09:25N 29°47' W 095°06'0 0.0
2018-Jun-14 08:55N 29°47' W 095°06'0 0.0
2018-Jun-14 08:17N 29°47' W 095°06'0 0.0
2018-Jun-14 08:00N 29°47' W 095°06'0 0.0
2018-Jun-14 07:27N 29°47' W 095°06'0 0.0
2018-Jun-14 06:58N 29°47' W 095°06'0 0.0
2018-Jun-14 06:30N 29°47' W 095°06'0 0.0
2018-Jun-14 05:46N 29°47' W 095°06'0 0.0
2018-Jun-14 04:23N 29°47' W 095°06'0 0.0
2018-Jun-14 03:58N 29°47' W 095°06'0 0.0
2018-Jun-14 03:28N 29°47' W 095°06'0 0.0
2018-Jun-14 02:53N 29°47' W 095°06'0 0.0
2018-Jun-14 02:27N 29°47' W 095°06'0 0.0
2018-Jun-14 01:49N 29°47' W 095°06'0 0.0
2018-Jun-14 01:26N 29°47' W 095°06'0 0.0
2018-Jun-13 07:57N 29°47' W 095°06'0 0.0
2018-Jun-13 06:15N 29°47' W 095°06'0 0.0
2018-Jun-13 06:00N 29°47' W 095°06'0 0.0
2018-Jun-13 05:30N 29°47' W 095°06'0 0.0
2018-Jun-13 05:00N 29°47' W 095°06'0 0.0
2018-Jun-13 04:28N 29°47' W 095°06'0 0.0
2018-Jun-13 03:59N 29°47' W 095°06'0 0.0
2018-Jun-13 03:27N 29°47' W 095°06'0 0.0
2018-Jun-13 02:49N 29°47' W 095°06'0 0.0
2018-Jun-13 02:09N 29°47' W 095°06'0 0.0
2018-Jun-13 01:58N 29°47' W 095°06'0 0.0
2018-Jun-12 11:36N 29°47' W 095°06'0 0.0
2018-Jun-12 11:25N 29°47' W 095°06'0 0.0
2018-Jun-12 10:43N 29°47' W 095°06'0 0.0
2018-Jun-12 10:11N 29°47' W 095°06'  

Dump ship's entire track history